createdAt,value
2018-03-23T00:01:10.564Z,91.67
2018-03-23T00:03:38.065Z,96.57
2018-03-23T00:06:05.567Z,95.47
2018-03-23T00:08:33.055Z,89.77
2018-03-23T00:11:01.342Z,99.23
2018-03-23T00:13:29.597Z,89.97
2018-03-23T00:15:57.118Z,95.23
2018-03-23T00:18:24.615Z,90.50
2018-03-23T00:20:52.373Z,102.83
2018-03-23T00:23:19.854Z,92.63
2018-03-23T00:25:48.216Z,89.77
2018-03-23T00:28:15.699Z,84.97
2018-03-23T00:30:43.935Z,78.07
2018-03-23T00:33:11.427Z,79.23
2018-03-23T00:35:39.719Z,88.50
2018-03-23T00:38:07.983Z,96.57
2018-03-23T00:40:36.325Z,93.43
2018-03-23T00:43:03.819Z,91.50
2018-03-23T00:45:32.171Z,116.20
2018-03-23T00:47:59.671Z,89.07
2018-03-23T00:50:27.935Z,100.60
2018-03-23T00:52:56.227Z,106.43
2018-03-23T00:55:23.755Z,97.13
2018-03-23T00:57:51.379Z,101.33
2018-03-23T01:00:18.872Z,74.03
2018-03-23T01:02:46.373Z,94.57
2018-03-23T01:05:13.921Z,81.70
2018-03-23T01:07:41.430Z,93.10
2018-03-23T01:10:08.930Z,84.83
2018-03-23T01:12:36.455Z,72.60
2018-03-23T01:15:03.934Z,70.50
2018-03-23T01:17:31.498Z,68.67
2018-03-23T01:19:59.063Z,65.90
2018-03-23T01:22:26.555Z,69.07
2018-03-23T01:24:54.068Z,68.93
2018-03-23T01:27:22.219Z,76.57
2018-03-23T01:29:49.729Z,60.63
2018-03-23T01:32:17.240Z,60.63
2018-03-23T01:34:44.723Z,73.43
2018-03-23T01:37:12.200Z,62.93
2018-03-23T01:39:40.460Z,64.83
2018-03-23T01:42:07.953Z,53.77
2018-03-23T01:44:35.467Z,75.87
2018-03-23T01:47:04.459Z,64.73
2018-03-23T01:49:32.150Z,63.13
2018-03-23T01:52:00.430Z,79.23
2018-03-23T01:54:28.682Z,82.67
2018-03-23T01:56:56.187Z,83.93
2018-03-23T01:59:23.687Z,87.27
2018-03-23T02:01:51.199Z,96.83
2018-03-23T02:04:18.696Z,115.37
2018-03-23T02:06:46.207Z,117.60
2018-03-23T02:09:13.746Z,118.87
2018-03-23T02:11:41.231Z,113.60
2018-03-23T02:14:08.715Z,124.93
2018-03-23T02:16:36.198Z,104.77
2018-03-23T02:19:03.674Z,110.53
2018-03-23T02:21:31.184Z,117.57
2018-03-23T02:23:58.690Z,112.00
2018-03-23T02:26:26.194Z,111.17
2018-03-23T02:28:53.731Z,105.27
2018-03-23T02:31:21.216Z,104.83
2018-03-23T02:33:48.738Z,106.63
2018-03-23T02:36:16.262Z,80.33
2018-03-23T02:38:43.759Z,106.53
2018-03-23T02:41:11.268Z,88.50
2018-03-23T02:43:38.789Z,96.03
2018-03-23T02:46:07.067Z,73.53
2018-03-23T02:48:35.346Z,94.47
2018-03-23T02:51:03.738Z,80.20
2018-03-23T02:53:31.284Z,75.60
2018-03-23T02:55:59.665Z,65.53
2018-03-23T02:58:27.279Z,59.13
2018-03-23T03:00:55.543Z,57.77
2018-03-23T03:03:23.104Z,87.60
2018-03-23T03:05:50.581Z,65.27
2018-03-23T03:08:18.463Z,72.40
2018-03-23T03:10:46.172Z,67.87
2018-03-23T03:13:13.674Z,59.00
2018-03-23T03:15:41.267Z,57.13
2018-03-23T03:18:09.529Z,64.83
2018-03-23T03:20:37.011Z,64.87
2018-03-23T03:23:05.269Z,67.23
2018-03-23T03:25:32.750Z,73.23
2018-03-23T03:28:01.020Z,64.47
2018-03-23T03:30:29.501Z,65.23
2018-03-23T03:32:57.018Z,55.70
2018-03-23T03:35:25.293Z,66.43
2018-03-23T03:37:52.798Z,71.47
2018-03-23T03:40:20.302Z,65.47
2018-03-23T03:42:47.802Z,66.30
2018-03-23T03:45:15.283Z,60.60
2018-03-23T03:47:43.535Z,74.20
2018-03-23T03:50:11.020Z,52.17
2018-03-23T03:52:39.276Z,67.17
2018-03-23T03:55:07.540Z,61.03
2018-03-23T03:57:35.015Z,58.80
2018-03-23T04:00:02.543Z,69.90
2018-03-23T04:02:30.024Z,54.90
2018-03-23T04:04:57.595Z,55.73
2018-03-23T04:07:25.097Z,61.97
2018-03-23T04:09:52.655Z,59.60
2018-03-23T04:12:20.171Z,78.53
2018-03-23T04:14:47.705Z,71.90
2018-03-23T04:17:15.185Z,82.97
2018-03-23T04:19:42.712Z,68.90
2018-03-23T04:22:10.225Z,75.80
2018-03-23T04:24:38.482Z,79.63
2018-03-23T04:27:05.972Z,89.03
2018-03-23T04:29:34.220Z,81.20
2018-03-23T04:32:01.712Z,84.23
2018-03-23T04:34:29.185Z,75.93
2018-03-23T04:36:56.783Z,77.17
2018-03-23T04:39:24.262Z,64.10
2018-03-23T04:41:51.780Z,84.57
2018-03-23T04:44:19.278Z,80.07
2018-03-23T04:46:47.548Z,75.57
2018-03-23T04:49:15.271Z,83.17
2018-03-23T04:51:42.755Z,64.90
2018-03-23T04:54:10.273Z,85.87
2018-03-23T04:56:37.768Z,77.20
2018-03-23T04:59:05.272Z,71.47
2018-03-23T05:01:33.526Z,69.33
2018-03-23T05:04:01.035Z,70.77
2018-03-23T05:06:28.514Z,67.03
2018-03-23T05:08:56.047Z,68.43
2018-03-23T05:13:57.559Z,72.47
2018-03-23T05:16:25.814Z,68.33
2018-03-23T05:18:53.351Z,65.47
2018-03-23T05:21:20.854Z,62.10
2018-03-23T05:23:48.368Z,71.33
2018-03-23T05:26:15.857Z,65.80
2018-03-23T05:28:43.359Z,70.50
2018-03-23T05:31:11.652Z,74.73
2018-03-23T05:33:39.891Z,81.90
2018-03-23T05:36:07.374Z,69.40
2018-03-23T05:38:35.614Z,60.43
2018-03-23T05:41:03.116Z,70.63
2018-03-23T05:43:31.507Z,67.40
2018-03-23T05:45:58.999Z,71.57
2018-03-23T05:48:26.502Z,75.63
2018-03-23T05:50:54.054Z,69.37
2018-03-23T05:53:21.603Z,61.73
2018-03-23T05:55:49.207Z,76.50
2018-03-23T05:58:16.736Z,54.00
2018-03-23T06:00:44.271Z,80.30
2018-03-23T06:03:11.750Z,74.70
2018-03-23T06:05:39.314Z,61.20
2018-03-23T06:08:06.820Z,65.00
2018-03-23T06:10:34.486Z,56.70
2018-03-23T06:13:02.386Z,61.97
2018-03-23T06:15:29.858Z,58.73
2018-03-23T06:17:57.420Z,59.97
2018-03-23T06:20:24.923Z,70.70
2018-03-23T06:22:52.438Z,59.47
2018-03-23T06:25:19.939Z,61.77
2018-03-23T06:27:47.447Z,55.67
2018-03-23T06:30:14.933Z,51.40
2018-03-23T06:32:42.469Z,54.87
2018-03-23T06:35:09.976Z,56.73
2018-03-23T06:37:37.524Z,44.87
2018-03-23T06:40:05.805Z,46.43
2018-03-23T06:42:33.328Z,49.33
2018-03-23T06:45:00.855Z,46.40
2018-03-23T06:47:28.334Z,53.00
2018-03-23T06:49:55.845Z,54.53
2018-03-23T06:52:24.086Z,51.90
2018-03-23T06:54:51.628Z,51.87
2018-03-23T06:57:19.255Z,49.63
2018-03-23T06:59:46.767Z,51.57
2018-03-23T07:02:14.266Z,43.23
2018-03-23T07:04:42.532Z,36.53
2018-03-23T07:07:10.866Z,40.93
2018-03-23T07:09:38.454Z,49.10
2018-03-23T07:12:05.941Z,40.47
2018-03-23T07:14:33.462Z,52.53
2018-03-23T07:17:00.945Z,34.87
2018-03-23T07:19:29.197Z,42.87
2018-03-23T07:21:56.708Z,38.33
2018-03-23T07:24:24.212Z,38.97
2018-03-23T07:26:51.755Z,36.83
2018-03-23T07:29:19.465Z,31.33
2018-03-23T07:31:46.968Z,28.47
2018-03-23T07:34:14.453Z,37.00
2018-03-23T07:36:41.990Z,33.10
2018-03-23T07:39:09.471Z,26.17
2018-03-23T07:41:36.958Z,28.80
2018-03-23T07:44:05.208Z,27.13
2018-03-23T07:46:32.699Z,26.50
2018-03-23T07:49:00.952Z,34.40
2018-03-23T07:51:28.461Z,22.20
2018-03-23T07:53:55.981Z,24.17
2018-03-23T07:56:23.494Z,28.33
2018-03-23T07:58:52.006Z,27.70
2018-03-23T08:01:19.559Z,23.50
2018-03-23T08:03:47.102Z,27.73
2018-03-23T08:06:14.602Z,19.50
2018-03-23T08:08:42.107Z,18.63
2018-03-23T08:11:10.627Z,14.33
2018-03-23T08:13:38.514Z,12.30
2018-03-23T08:16:06.784Z,18.00
2018-03-23T08:18:35.100Z,14.43
2018-03-23T08:21:02.574Z,14.93
2018-03-23T08:23:30.072Z,12.40
2018-03-23T08:25:58.631Z,14.20
2018-03-23T08:28:26.337Z,9.77
2018-03-23T08:30:54.596Z,10.97
2018-03-23T08:33:22.212Z,9.77
2018-03-23T08:35:49.802Z,19.20
2018-03-23T08:38:17.413Z,12.93
2018-03-23T08:40:44.963Z,25.17
2018-03-23T08:43:13.244Z,32.60
2018-03-23T08:45:41.630Z,14.03
2018-03-23T08:48:09.899Z,18.50
2018-03-23T08:50:38.568Z,17.73
2018-03-23T08:53:06.065Z,16.60
2018-03-23T08:55:33.634Z,19.27
2018-03-23T08:58:01.166Z,15.93
2018-03-23T09:00:29.611Z,20.43
2018-03-23T09:02:57.356Z,12.10
2018-03-23T09:05:25.126Z,12.17
2018-03-23T09:07:52.622Z,12.40
2018-03-23T09:10:20.106Z,14.87
2018-03-23T09:12:47.612Z,14.97
2018-03-23T09:15:15.142Z,15.30
2018-03-23T09:17:42.964Z,16.07
2018-03-23T09:20:14.346Z,15.37
2018-03-23T09:22:43.765Z,18.70
2018-03-23T09:25:11.286Z,17.30
2018-03-23T09:27:39.679Z,17.60
2018-03-23T09:30:07.942Z,16.97
2018-03-23T09:32:35.632Z,11.67
2018-03-23T09:35:03.211Z,14.00
2018-03-23T09:37:30.899Z,12.73
2018-03-23T09:39:58.376Z,11.07
2018-03-23T09:42:27.784Z,19.47
2018-03-23T09:44:55.746Z,14.70
2018-03-23T09:47:24.248Z,26.03
2018-03-23T09:49:51.783Z,20.23
2018-03-23T09:52:19.269Z,18.37
2018-03-23T09:54:47.559Z,18.97
2018-03-23T09:57:15.277Z,17.20
2018-03-23T09:59:42.841Z,19.03
2018-03-23T10:02:10.496Z,26.47
2018-03-23T10:04:38.025Z,21.87
2018-03-23T10:07:05.519Z,20.93
2018-03-23T10:09:33.079Z,21.37
2018-03-23T10:12:00.567Z,18.97
2018-03-23T10:14:28.848Z,15.43
2018-03-23T10:16:56.376Z,23.17
2018-03-23T10:19:24.100Z,17.93
2018-03-23T10:21:51.673Z,19.87
2018-03-23T10:24:19.452Z,23.90
2018-03-23T10:26:47.088Z,26.93
2018-03-23T10:29:14.641Z,30.50
2018-03-23T10:31:42.562Z,24.73
2018-03-23T10:34:10.050Z,16.60
2018-03-23T10:36:38.298Z,16.53
2018-03-23T10:39:05.937Z,15.23
2018-03-23T10:41:33.481Z,30.60
2018-03-23T10:44:01.078Z,20.93
2018-03-23T10:46:28.699Z,16.73
2018-03-23T10:48:56.325Z,16.50
2018-03-23T10:51:23.924Z,19.17
2018-03-23T10:53:51.529Z,21.77
2018-03-23T10:56:19.096Z,24.50
2018-03-23T10:58:46.589Z,25.80
2018-03-23T11:01:19.874Z,26.87
2018-03-23T11:03:48.125Z,22.53
2018-03-23T11:06:15.636Z,20.33
2018-03-23T11:08:43.239Z,19.37
2018-03-23T11:11:11.762Z,17.20
2018-03-23T11:13:39.404Z,22.17
2018-03-23T11:16:06.982Z,12.00
2018-03-23T11:18:34.472Z,15.60
2018-03-23T11:21:02.206Z,17.30
2018-03-23T11:23:29.660Z,15.30
2018-03-23T11:25:57.964Z,21.60
2018-03-23T11:28:25.541Z,23.57
2018-03-23T11:30:53.151Z,17.00
2018-03-23T11:33:20.811Z,25.87
2018-03-23T11:35:49.084Z,12.43
2018-03-23T11:38:16.651Z,20.00
2018-03-23T11:40:44.954Z,14.00
2018-03-23T11:43:14.268Z,18.00
2018-03-23T11:45:41.908Z,13.60
2018-03-23T11:48:10.717Z,12.80
2018-03-23T11:50:38.925Z,14.83
2018-03-23T11:53:06.519Z,8.90
2018-03-23T11:55:34.780Z,9.83
2018-03-23T11:58:02.290Z,9.20
2018-03-23T12:00:30.262Z,13.17
2018-03-23T12:02:57.774Z,14.20
2018-03-23T12:05:26.040Z,8.33
2018-03-23T12:07:53.554Z,16.57
2018-03-23T12:10:21.210Z,19.93
2018-03-23T12:12:48.723Z,16.07
2018-03-23T12:15:16.236Z,8.50
2018-03-23T12:17:43.799Z,12.47
2018-03-23T12:20:11.397Z,12.20
2018-03-23T12:22:40.209Z,8.47
2018-03-23T12:25:08.623Z,9.73
2018-03-23T12:27:36.877Z,8.27
2018-03-23T12:30:05.655Z,10.23
2018-03-23T12:32:33.946Z,17.23
2018-03-23T12:35:01.512Z,13.23
2018-03-23T12:37:29.136Z,17.23
2018-03-23T12:39:57.460Z,7.90
2018-03-23T12:42:25.052Z,11.57
2018-03-23T12:44:52.544Z,8.57
2018-03-23T12:47:20.082Z,11.20
2018-03-23T12:49:47.578Z,17.37
2018-03-23T12:52:15.819Z,19.10
2018-03-23T12:54:43.317Z,15.87
2018-03-23T12:57:11.580Z,13.83
2018-03-23T12:59:39.884Z,13.33
2018-03-23T13:02:07.387Z,12.53
2018-03-23T13:04:34.892Z,12.73
2018-03-23T13:07:02.385Z,12.37
2018-03-23T13:09:29.899Z,11.50
2018-03-23T13:11:57.371Z,22.33
2018-03-23T13:14:25.649Z,21.40
2018-03-23T13:16:53.176Z,23.27
2018-03-23T13:19:20.748Z,20.80
2018-03-23T13:21:48.424Z,14.07
2018-03-23T13:24:16.722Z,23.70
2018-03-23T13:26:44.207Z,25.47
2018-03-23T13:29:11.728Z,31.17
2018-03-23T13:31:40.021Z,29.53
2018-03-23T13:34:07.539Z,25.47
2018-03-23T13:36:35.796Z,26.77
2018-03-23T13:39:03.276Z,39.63
2018-03-23T13:41:30.763Z,20.73
2018-03-23T13:43:58.231Z,24.63
2018-03-23T13:46:25.792Z,36.90
2018-03-23T13:48:53.285Z,32.27
2018-03-23T13:51:20.823Z,37.83
2018-03-23T13:53:48.315Z,30.17
2018-03-23T13:56:16.686Z,33.23
2018-03-23T13:58:49.770Z,31.27
2018-03-23T14:01:22.814Z,32.30
2018-03-23T14:03:51.047Z,29.03
2018-03-23T14:06:18.588Z,48.97
2018-03-23T14:08:46.115Z,29.97
2018-03-23T14:11:14.409Z,33.57
2018-03-23T14:13:49.146Z,40.60
2018-03-23T14:16:16.690Z,34.97
2018-03-23T14:18:44.186Z,32.27
2018-03-23T14:21:11.739Z,30.73
2018-03-23T14:23:39.350Z,29.10
2018-03-23T14:26:07.624Z,33.07
2018-03-23T14:28:35.392Z,30.77
2018-03-23T14:31:03.726Z,26.27
2018-03-23T14:33:31.266Z,33.50
2018-03-23T14:35:58.829Z,31.17
2018-03-23T14:38:26.407Z,25.57
2018-03-23T14:40:53.876Z,26.97
2018-03-23T14:43:21.479Z,22.73
2018-03-23T14:45:49.816Z,21.67
2018-03-23T14:48:18.548Z,22.13
2018-03-23T14:50:46.872Z,23.63
2018-03-23T14:53:15.490Z,24.87
2018-03-23T14:55:43.041Z,20.07
2018-03-23T14:58:10.535Z,21.63
2018-03-23T15:00:38.060Z,32.17
2018-03-23T15:03:05.527Z,21.27
2018-03-23T15:05:33.029Z,19.60
2018-03-23T15:08:00.515Z,25.83
2018-03-23T15:10:28.025Z,34.07
2018-03-23T15:12:56.287Z,19.90
2018-03-23T15:15:23.766Z,20.53
2018-03-23T15:17:52.015Z,14.63
2018-03-23T15:20:19.538Z,42.63
2018-03-23T15:22:47.013Z,22.03
2018-03-23T15:25:15.289Z,19.83
2018-03-23T15:27:42.774Z,17.93
2018-03-23T15:30:10.343Z,22.67
2018-03-23T15:32:38.667Z,17.90
2018-03-23T15:35:06.191Z,17.63
2018-03-23T15:37:34.449Z,24.17
2018-03-23T15:40:02.731Z,19.13
2018-03-23T15:42:31.019Z,16.17
2018-03-23T15:44:59.270Z,14.63
2018-03-23T15:47:26.795Z,15.50
2018-03-23T15:49:54.255Z,15.27
2018-03-23T15:52:21.820Z,17.10
2018-03-23T15:54:49.293Z,17.40
2018-03-23T15:57:16.973Z,16.00
2018-03-23T15:59:44.494Z,16.60
2018-03-23T16:02:11.976Z,14.60
2018-03-23T16:04:39.538Z,13.47
2018-03-23T16:07:07.857Z,15.10
2018-03-23T16:09:36.161Z,16.40
2018-03-23T16:12:03.648Z,17.80
2018-03-23T16:14:31.174Z,17.37
2018-03-23T16:16:58.643Z,14.93
2018-03-23T16:19:26.144Z,14.33
2018-03-23T16:21:53.761Z,19.37
2018-03-23T16:24:21.273Z,14.77
2018-03-23T16:26:49.548Z,14.20
2018-03-23T16:29:17.064Z,21.50
2018-03-23T16:31:45.125Z,12.70
2018-03-23T16:34:12.591Z,9.60
2018-03-23T16:36:40.119Z,11.87
2018-03-23T16:39:07.604Z,11.77
2018-03-23T16:41:37.044Z,21.33
2018-03-23T16:44:07.189Z,14.40
2018-03-23T16:46:36.201Z,14.33
2018-03-23T16:49:05.614Z,13.57
2018-03-23T16:51:33.167Z,11.47
2018-03-23T16:54:01.618Z,21.47
2018-03-23T16:56:30.384Z,19.10
2018-03-23T16:58:58.820Z,19.93
2018-03-23T17:01:26.378Z,21.10
2018-03-23T17:03:54.315Z,16.47
2018-03-23T17:06:21.830Z,22.13
2018-03-23T17:08:49.325Z,15.17
2018-03-23T17:11:16.838Z,14.60
2018-03-23T17:13:44.352Z,17.23
2018-03-23T17:16:12.619Z,11.97
2018-03-23T17:18:40.116Z,15.47
2018-03-23T17:21:07.593Z,21.53
2018-03-23T17:23:35.107Z,14.60
2018-03-23T17:26:02.594Z,14.70
2018-03-23T17:28:30.865Z,24.57
2018-03-23T17:30:59.219Z,14.03
2018-03-23T17:33:27.514Z,11.33
2018-03-23T17:35:55.765Z,19.50
2018-03-23T17:38:23.976Z,13.37
2018-03-23T17:41:15.704Z,14.43
2018-03-23T17:43:44.692Z,18.93
2018-03-23T17:46:12.209Z,21.63
2018-03-23T17:48:39.712Z,14.97
2018-03-23T17:51:08.024Z,19.10
2018-03-23T17:53:35.524Z,21.17
2018-03-23T17:56:03.069Z,14.43
2018-03-23T17:58:30.556Z,13.93
2018-03-23T18:00:59.126Z,15.80
2018-03-23T18:03:26.627Z,20.77
2018-03-23T18:05:54.191Z,18.00
2018-03-23T18:08:21.702Z,12.00
2018-03-23T18:10:49.218Z,21.00
2018-03-23T18:13:17.083Z,12.67
2018-03-23T18:15:44.623Z,17.10
2018-03-23T18:18:12.611Z,13.93
2018-03-23T18:20:41.149Z,19.27
2018-03-23T18:23:08.737Z,12.70
2018-03-23T18:25:37.792Z,15.40
2018-03-23T18:28:05.311Z,14.50
2018-03-23T18:30:34.798Z,15.53
2018-03-23T18:33:03.177Z,21.20
2018-03-23T18:35:30.660Z,15.10
2018-03-23T18:37:58.163Z,17.30
2018-03-23T18:40:25.639Z,13.73
2018-03-23T18:42:53.915Z,23.43
2018-03-23T18:45:21.655Z,12.00
2018-03-23T18:47:49.119Z,14.27
2018-03-23T18:50:17.003Z,16.43
2018-03-23T18:52:45.256Z,12.10
2018-03-23T18:55:13.521Z,13.87
2018-03-23T18:57:41.217Z,15.73
2018-03-23T19:00:09.575Z,14.97
2018-03-23T19:02:37.052Z,13.07
2018-03-23T19:05:05.539Z,14.70
2018-03-23T19:07:33.020Z,15.70
2018-03-23T19:10:00.538Z,17.27
2018-03-23T19:12:28.027Z,20.50
2018-03-23T19:14:56.361Z,18.50
2018-03-23T19:17:24.222Z,17.60
2018-03-23T19:19:51.822Z,19.73
2018-03-23T19:22:19.571Z,20.77
2018-03-23T19:24:47.051Z,22.27
2018-03-23T19:27:16.064Z,21.47
2018-03-23T19:29:45.534Z,17.63
2018-03-23T19:32:13.568Z,17.40
2018-03-23T19:34:41.083Z,23.63
2018-03-23T19:37:08.603Z,19.13
2018-03-23T19:39:36.503Z,21.30
2018-03-23T19:42:04.030Z,21.17
2018-03-23T19:44:31.621Z,21.37
2018-03-23T19:46:59.196Z,21.83
2018-03-23T19:49:27.796Z,19.93
2018-03-23T19:51:55.366Z,22.23
2018-03-23T19:54:22.992Z,19.43
2018-03-23T19:56:51.285Z,15.37
2018-03-23T19:59:19.652Z,25.37
2018-03-23T20:01:47.274Z,27.80
2018-03-23T20:04:14.990Z,23.10
2018-03-23T20:06:42.621Z,27.30
2018-03-23T20:09:10.400Z,22.90
2018-03-23T20:11:38.389Z,28.47
2018-03-23T20:14:10.818Z,30.77
2018-03-23T20:16:38.302Z,19.87
2018-03-23T20:19:05.852Z,25.00
2018-03-23T20:21:33.363Z,24.33
2018-03-23T20:24:06.578Z,23.10
2018-03-23T20:26:34.106Z,25.93
2018-03-23T20:29:01.923Z,20.90
2018-03-23T20:31:35.259Z,22.80
2018-03-23T20:34:03.496Z,21.80
2018-03-23T20:36:31.098Z,23.97
2018-03-23T20:38:58.714Z,20.10
2018-03-23T20:41:26.246Z,21.07
2018-03-23T20:43:53.850Z,25.33
2018-03-23T20:46:21.435Z,14.97
2018-03-23T20:48:49.762Z,27.03
2018-03-23T20:51:17.265Z,27.80
2018-03-23T20:53:45.567Z,19.87
2018-03-23T20:56:13.267Z,20.67
2018-03-23T20:58:40.823Z,25.63
2018-03-23T21:01:08.438Z,16.00
2018-03-23T21:03:36.856Z,25.70
2018-03-23T21:06:04.452Z,25.57
2018-03-23T21:08:32.711Z,24.43
2018-03-23T21:11:00.368Z,23.37
2018-03-23T21:13:28.019Z,23.77
2018-03-23T21:15:55.667Z,23.73
2018-03-23T21:18:23.177Z,20.40
2018-03-23T21:20:50.680Z,32.70
2018-03-23T21:23:18.173Z,24.00
2018-03-23T21:25:45.663Z,18.20
2018-03-23T21:28:13.194Z,22.40
2018-03-23T21:30:40.781Z,23.10
2018-03-23T21:33:10.055Z,18.33
2018-03-23T21:35:37.639Z,23.97
2018-03-23T21:38:06.013Z,21.90
2018-03-23T21:40:33.488Z,21.70
2018-03-23T21:43:01.822Z,21.43
2018-03-23T21:45:29.369Z,22.03
2018-03-23T21:47:56.935Z,20.23
2018-03-23T21:50:24.450Z,23.57
2018-03-23T21:52:53.682Z,14.83
2018-03-23T21:55:21.254Z,19.87
2018-03-23T21:57:49.416Z,23.87
2018-03-23T22:00:16.949Z,21.97
2018-03-23T22:02:45.378Z,23.50
2018-03-23T22:05:12.967Z,22.73
2018-03-23T22:07:41.379Z,18.30
2018-03-23T22:10:08.951Z,20.17
2018-03-23T22:12:36.427Z,17.60
2018-03-23T22:15:04.070Z,15.13
2018-03-23T22:17:32.057Z,20.57
2018-03-23T22:19:59.549Z,16.27
2018-03-23T22:22:27.018Z,19.43
2018-03-23T22:24:54.512Z,20.93
2018-03-23T22:27:21.978Z,15.73
2018-03-23T22:29:49.457Z,23.50
2018-03-23T22:32:17.200Z,20.87
2018-03-23T22:34:44.766Z,19.93
2018-03-23T22:37:12.260Z,19.60
2018-03-23T22:39:39.738Z,21.63
2018-03-23T22:42:07.226Z,15.43
2018-03-23T22:44:34.773Z,14.50
2018-03-23T22:47:03.019Z,16.17
2018-03-23T22:49:30.487Z,13.33
2018-03-23T22:51:58.027Z,20.40
2018-03-23T22:54:25.549Z,22.50
2018-03-23T22:56:53.194Z,17.03
2018-03-23T22:59:21.567Z,19.20
2018-03-23T23:01:49.125Z,18.93
2018-03-23T23:04:17.408Z,26.83
2018-03-23T23:06:44.906Z,17.63
2018-03-23T23:09:12.521Z,16.27
2018-03-23T23:11:40.790Z,17.50
2018-03-23T23:14:08.354Z,21.33
2018-03-23T23:16:35.898Z,17.87
2018-03-23T23:19:03.538Z,16.67
2018-03-23T23:21:31.227Z,18.60
2018-03-23T23:23:58.983Z,17.43
2018-03-23T23:26:26.522Z,16.97
2018-03-23T23:28:54.022Z,18.77
2018-03-23T23:31:21.524Z,21.00
2018-03-23T23:33:49.026Z,14.80
2018-03-23T23:36:16.484Z,16.70
2018-03-23T23:38:44.728Z,12.57
2018-03-23T23:41:12.225Z,17.03
2018-03-23T23:43:39.947Z,13.83
2018-03-23T23:46:07.444Z,20.40
2018-03-23T23:48:34.911Z,21.13
2018-03-23T23:51:02.431Z,15.00
2018-03-23T23:53:29.919Z,18.27
2018-03-23T23:55:57.448Z,13.03
2018-03-23T23:58:24.965Z,17.47
